Terminal Aerodrome Forecast
Issued by NWS

Home | Current Version | Previous Version | Text Only | Print | Product List | Glossary On
Versions: 1 2 3 4 5 6 7 8 9 10 11 12 13 14 15 16 17 18 19
858
FTUS46 KMFR 261818 AAA
TAFLMT
TAF AMD
KLMT 261818Z 2618/2718 25017G25KT P6SM -RA SCT009 SCT015 OVC020
     FM262000 27018G32KT P6SM -SHRA SCT015 BKN025 OVC035
     FM262300 29018G32KT P6SM -SHRA SCT025 OVC035
     FM270300 29010KT P6SM SCT025 BKN035
     FM270600 28007KT P6SM SCT015 SCT030 BKN250=

USA.gov is the U.S. government's official web portal to all federal, state and local government web resources and services.